Time;durP1;ratioP1;P1;durP2;ratioP2;P2;SDS_P1;SDS_P2;PMS_P1;PMS_P2;Temp;Humidity;BMP_temperature;BMP_pressure;BME280_temperature;BME280_humidity;BME280_pressure;Samples;Min_cycle;Max_cycle;Signal;HPM_P1;HPM_P2
2021/12/07 04:03:07;;;;;;;2.57;1.10;;;4.00;86.30;;;;;;4996598;28;20517;-70
2021/12/07 04:05:34;;;;;;;2.30;0.90;;;4.10;86.20;;;;;;4998019;28;20437;-71
2021/12/07 04:08:00;;;;;;;2.20;1.00;;;4.10;85.70;;;;;;4997819;28;20460;-71
2021/12/07 04:10:27;;;;;;;2.70;1.23;;;4.00;86.20;;;;;;4997870;28;20445;-71
2021/12/07 04:12:54;;;;;;;2.70;1.00;;;4.10;85.80;;;;;;4997852;28;20456;-70
2021/12/07 04:15:21;;;;;;;2.70;1.10;;;4.20;86.10;;;;;;5022491;23;20493;-69
2021/12/07 04:17:48;;;;;;;2.40;1.00;;;4.30;85.70;;;;;;4997662;28;20453;-70
2021/12/07 04:20:19;;;;;;;2.50;0.90;;;4.40;84.50;;;;;;4997584;28;20449;-69
2021/12/07 04:22:46;;;;;;;2.50;1.10;;;4.20;85.20;;;;;;4997885;28;20433;-69
2021/12/07 04:25:15;;;;;;;2.50;1.00;;;4.20;85.50;;;;;;4997449;28;20519;-69
2021/12/07 04:27:42;;;;;;;2.20;0.80;;;4.20;85.40;;;;;;4997616;28;20507;-69
2021/12/07 04:30:12;;;;;;;2.33;1.00;;;4.30;85.60;;;;;;4997545;28;20449;-69
2021/12/07 04:32:38;;;;;;;2.30;0.83;;;4.30;85.20;;;;;;4997435;28;20445;-69
2021/12/07 04:35:06;;;;;;;2.30;0.80;;;4.20;85.50;;;;;;4996987;28;21034;-69
2021/12/07 04:37:35;;;;;;;2.50;1.13;;;4.40;85.20;;;;;;4997059;28;20947;-69
2021/12/07 04:40:02;;;;;;;2.37;1.00;;;4.40;84.90;;;;;;4997342;28;20445;-69
2021/12/07 04:42:28;;;;;;;2.23;0.80;;;4.60;84.60;;;;;;4997293;28;20457;-69
2021/12/07 04:44:59;;;;;;;3.10;1.20;;;4.70;84.20;;;;;;4997192;28;20886;-70
2021/12/07 04:47:35;;;;;;;2.57;1.03;;;4.80;83.70;;;;;;4997105;28;20442;-69
2021/12/07 04:50:26;;;;;;;2.40;0.83;;;4.70;83.40;;;;;;4997220;28;20437;-69
2021/12/07 04:58:22;;;;;;;3.00;0.70;;;4.60;83.40;;;;;;4966832;28;20514;-69
2021/12/07 05:00:50;;;;;;;2.50;0.80;;;4.60;83.30;;;;;;4996906;28;20441;-70
2021/12/07 05:03:17;;;;;;;2.20;0.80;;;4.50;83.80;;;;;;4996776;28;20447;-69
2021/12/07 05:05:47;;;;;;;2.50;0.80;;;4.40;83.80;;;;;;4996316;28;20983;-69
2021/12/07 05:08:21;;;;;;;2.40;0.90;;;4.40;84.10;;;;;;4996376;28;20920;-69
2021/12/07 05:11:23;;;;;;;2.20;0.70;;;4.40;83.80;;;;;;4996645;28;20430;-69
2021/12/07 05:13:56;;;;;;;2.93;0.90;;;4.20;84.50;;;;;;4996029;28;20933;-68
2021/12/07 05:16:35;;;;;;;3.43;0.90;;;4.10;84.90;;;;;;4996199;28;20492;-69
2021/12/07 05:23:51;;;;;;;2.93;0.87;;;4.10;85.70;;;;;;4996497;28;20487;-68
2021/12/07 05:24:48;;;;;;;2.40;0.90;;;4.10;85.40;;;;;;4996090;28;20820;-70
2021/12/07 05:38:02;;;;;;;2.23;0.80;;;4.50;84.10;;;;;;4996410;28;20759;-69
2021/12/07 05:40:34;;;;;;;3.93;1.00;;;4.50;84.20;;;;;;4996067;28;20448;-70
2021/12/07 05:43:01;;;;;;;2.50;0.90;;;4.70;83.70;;;;;;4996021;28;20444;-68
2021/12/07 05:45:32;;;;;;;2.70;0.80;;;4.80;83.40;;;;;;4995872;28;20465;-69
2021/12/07 05:47:59;;;;;;;2.80;1.10;;;4.90;82.80;;;;;;4995661;28;20443;-69
2021/12/07 05:50:29;;;;;;;2.20;0.90;;;4.90;82.90;;;;;;4995912;28;20503;-69
2021/12/07 05:52:56;;;;;;;2.50;1.10;;;4.90;82.50;;;;;;4995541;28;20936;-69
2021/12/07 05:55:23;;;;;;;2.60;1.10;;;4.90;82.60;;;;;;4995694;28;20543;-70
2021/12/07 05:57:51;;;;;;;3.13;0.80;;;4.90;82.30;;;;;;4995852;28;20496;-70
2021/12/07 06:00:24;;;;;;;2.80;0.90;;;4.80;82.10;;;;;;4995449;28;20945;-69
2021/12/07 06:02:51;;;;;;;3.10;1.07;;;4.50;82.80;;;;;;4995828;28;20799;-68
2021/12/07 06:05:18;;;;;;;3.43;1.00;;;4.30;83.50;;;;;;4995544;28;20465;-69
2021/12/07 06:07:45;;;;;;;2.30;0.90;;;4.20;84.00;;;;;;4995346;28;20454;-69
2021/12/07 06:10:11;;;;;;;3.33;0.90;;;4.10;83.70;;;;;;4995251;28;20853;-69
2021/12/07 06:12:38;;;;;;;2.60;1.10;;;4.10;84.30;;;;;;4995643;28;20453;-69
2021/12/07 06:15:08;;;;;;;2.20;0.80;;;3.90;84.50;;;;;;4995321;28;20489;-68
2021/12/07 06:17:35;;;;;;;2.60;1.10;;;3.80;85.20;;;;;;4995461;28;20496;-69
2021/12/07 06:20:02;;;;;;;2.50;0.90;;;3.80;85.20;;;;;;4995553;28;20449;-69
2021/12/07 06:22:28;;;;;;;3.10;1.00;;;3.70;85.60;;;;;;4995644;28;20857;-69
2021/12/07 06:24:55;;;;;;;3.47;1.10;;;3.60;85.90;;;;;;4995112;28;20500;-69
2021/12/07 06:27:22;;;;;;;2.40;1.00;;;3.60;86.50;;;;;;4996161;28;20441;-69
2021/12/07 06:29:48;;;;;;;2.60;0.80;;;3.60;86.60;;;;;;4995273;28;20449;-69
2021/12/07 06:32:16;;;;;;;2.33;0.93;;;3.50;86.40;;;;;;4995220;28;20441;-69
2021/12/07 06:34:43;;;;;;;3.23;0.80;;;3.40;87.30;;;;;;4995172;28;20454;-69
2021/12/07 06:37:10;;;;;;;2.20;0.80;;;3.40;87.80;;;;;;4995084;28;20508;-69
2021/12/07 06:39:37;;;;;;;2.87;1.00;;;3.40;87.40;;;;;;4995138;28;20445;-69
2021/12/07 06:42:04;;;;;;;2.80;1.00;;;3.50;87.40;;;;;;4995078;28;20453;-69
2021/12/07 06:44:31;;;;;;;2.70;1.10;;;3.70;86.90;;;;;;4994981;28;20453;-69
2021/12/07 06:46:58;;;;;;;2.93;0.90;;;3.80;86.00;;;;;;4994670;28;20862;-69
2021/12/07 06:49:26;;;;;;;2.43;1.03;;;3.90;85.60;;;;;;4994932;28;20448;-69
2021/12/07 06:51:53;;;;;;;2.30;0.90;;;3.90;85.10;;;;;;4994861;28;20445;-70
2021/12/07 06:54:20;;;;;;;2.60;1.00;;;3.90;85.20;;;;;;4994850;28;20460;-69
2021/12/07 06:56:47;;;;;;;3.37;1.30;;;3.90;85.40;;;;;;4994638;28;20489;-69
2021/12/07 06:59:13;;;;;;;3.67;1.10;;;3.90;84.90;;;;;;4994843;28;20449;-69
2021/12/07 07:01:40;;;;;;;2.30;0.90;;;3.90;85.40;;;;;;4994689;28;20476;-70
2021/12/07 07:04:08;;;;;;;2.40;1.00;;;4.10;85.10;;;;;;4994672;28;20512;-70
2021/12/07 07:06:36;;;;;;;2.40;1.00;;;4.20;84.30;;;;;;4994639;28;20543;-70
2021/12/07 07:09:04;;;;;;;2.30;0.90;;;4.30;84.10;;;;;;4994646;28;20525;-70
2021/12/07 07:11:30;;;;;;;4.30;1.20;;;4.30;83.70;;;;;;4994544;28;20472;-70
2021/12/07 07:13:57;;;;;;;3.00;1.10;;;4.10;83.50;;;;;;4994182;28;20991;-69
2021/12/07 07:16:25;;;;;;;2.67;1.10;;;4.30;83.80;;;;;;4994222;28;20496;-70
2021/12/07 07:18:51;;;;;;;4.63;1.27;;;4.40;83.90;;;;;;4994097;28;20860;-68
2021/12/07 07:21:18;;;;;;;9.53;1.37;;;4.50;83.10;;;;;;4994397;28;20449;-69
2021/12/07 07:23:46;;;;;;;3.23;1.00;;;4.60;83.00;;;;;;4994510;28;20484;-69
2021/12/07 07:26:13;;;;;;;2.50;1.10;;;4.80;82.50;;;;;;4993893;28;20990;-70
2021/12/07 07:28:40;;;;;;;2.60;1.20;;;5.00;82.10;;;;;;4994318;28;20445;-69
2021/12/07 07:31:09;;;;;;;3.13;1.07;;;5.10;81.60;;;;;;4994142;28;20507;-70
2021/12/07 07:33:36;;;;;;;2.80;1.10;;;5.20;81.40;;;;;;4994108;28;20448;-69
2021/12/07 07:36:03;;;;;;;2.30;1.00;;;5.30;80.90;;;;;;4993017;28;20475;-70
2021/12/07 07:38:30;;;;;;;4.00;1.23;;;5.40;80.70;;;;;;4993810;28;20494;-70
2021/12/07 07:40:58;;;;;;;4.60;1.10;;;5.30;80.20;;;;;;4993940;28;20453;-70
2021/12/07 07:43:25;;;;;;;3.00;1.40;;;5.40;80.20;;;;;;4994005;28;20457;-69
2021/12/07 07:45:53;;;;;;;2.57;1.00;;;5.50;79.90;;;;;;4994231;28;20469;-70
2021/12/07 07:48:21;;;;;;;3.13;1.20;;;5.50;80.00;;;;;;4994055;28;20457;-70
2021/12/07 07:50:51;;;;;;;4.00;1.53;;;5.50;79.60;;;;;;4994020;28;20504;-69
2021/12/07 07:53:18;;;;;;;2.40;0.90;;;5.40;79.40;;;;;;4993679;28;20941;-69
2021/12/07 07:55:45;;;;;;;2.80;1.20;;;5.40;79.90;;;;;;4993871;28;20469;-70
2021/12/07 07:58:13;;;;;;;2.57;1.13;;;5.20;79.80;;;;;;4993617;28;21062;-70
2021/12/07 08:00:41;;;;;;;3.70;0.97;;;5.10;79.80;;;;;;4993829;28;20484;-68
2021/12/07 08:03:07;;;;;;;3.37;1.00;;;4.90;81.00;;;;;;4993871;28;20870;-69
2021/12/07 08:05:34;;;;;;;3.27;1.40;;;5.00;81.00;;;;;;4993728;28;20472;-70
2021/12/07 08:08:01;;;;;;;2.30;0.90;;;5.20;80.60;;;;;;4993768;28;20453;-69
2021/12/07 08:10:29;;;;;;;2.30;0.90;;;5.20;80.50;;;;;;4993796;28;20800;-69
2021/12/07 08:12:56;;;;;;;3.83;1.30;;;5.40;80.40;;;;;;4993736;28;20449;-69
2021/12/07 08:15:25;;;;;;;3.03;1.20;;;5.40;79.70;;;;;;4993253;28;21172;-70
2021/12/07 08:17:52;;;;;;;4.40;1.33;;;5.50;79.60;;;;;;4993644;28;20484;-69
2021/12/07 08:20:19;;;;;;;4.03;1.10;;;5.40;79.60;;;;;;4993713;28;20495;-69
2021/12/07 08:22:45;;;;;;;2.50;1.07;;;5.50;79.70;;;;;;4993759;28;20445;-69
2021/12/07 08:25:13;;;;;;;2.77;1.27;;;5.50;78.90;;;;;;4993675;28;20469;-69
2021/12/07 08:27:39;;;;;;;2.83;1.00;;;5.30;79.40;;;;;;4993422;28;20446;-69
2021/12/07 08:30:09;;;;;;;3.30;1.00;;;5.40;79.60;;;;;;4993682;28;20452;-69
2021/12/07 08:32:39;;;;;;;3.57;1.30;;;5.30;79.20;;;;;;4993416;28;20452;-70
2021/12/07 08:35:06;;;;;;;5.80;1.53;;;5.20;79.80;;;;;;4993232;28;21043;-70
2021/12/07 08:37:33;;;;;;;2.67;1.20;;;5.30;79.80;;;;;;4993244;28;21059;-69
2021/12/07 08:40:00;;;;;;;2.40;1.00;;;5.30;79.50;;;;;;4993630;28;20858;-70
2021/12/07 08:42:26;;;;;;;2.60;1.10;;;5.40;80.00;;;;;;4993244;28;20830;-70
2021/12/07 08:44:53;;;;;;;5.70;1.40;;;5.60;79.50;;;;;;4993460;28;20951;-70
2021/12/07 08:47:20;;;;;;;3.30;1.37;;;5.90;79.10;;;;;;4996136;28;20789;-69
2021/12/07 08:49:48;;;;;;;3.87;1.37;;;6.10;78.80;;;;;;4997132;28;20773;-69
2021/12/07 08:52:15;;;;;;;2.30;0.90;;;6.50;77.50;;;;;;4997097;28;20453;-69
2021/12/07 09:00:09;;;;;;;3.70;1.40;;;7.00;74.40;;;;;;4996878;28;20437;-69
2021/12/07 09:02:36;;;;;;;5.63;1.43;;;7.10;74.20;;;;;;4997056;28;20439;-70
2021/12/07 09:05:05;;;;;;;2.27;0.87;;;7.00;74.30;;;;;;4996782;28;20468;-70
2021/12/07 09:07:31;;;;;;;3.33;1.20;;;7.00;74.10;;;;;;4996853;28;20495;-69
2021/12/07 09:09:58;;;;;;;3.57;1.20;;;7.20;74.70;;;;;;4996741;28;20531;-69
2021/12/07 09:12:25;;;;;;;3.50;1.10;;;7.30;73.30;;;;;;4996711;28;20522;-69
2021/12/07 09:14:53;;;;;;;2.87;1.33;;;7.20;72.90;;;;;;4996167;28;21046;-70
2021/12/07 09:17:20;;;;;;;4.60;1.20;;;7.30;73.20;;;;;;4996156;28;20880;-69
2021/12/07 09:19:47;;;;;;;4.43;1.80;;;7.10;73.00;;;;;;4996538;28;20469;-69
2021/12/07 09:22:15;;;;;;;4.70;1.33;;;6.80;73.10;;;;;;4996197;28;20940;-69
2021/12/07 09:24:43;;;;;;;2.50;1.20;;;6.80;73.00;;;;;;4996407;28;20504;-69
2021/12/07 09:27:09;;;;;;;3.13;1.13;;;6.80;74.50;;;;;;4996382;28;20456;-69
2021/12/07 09:29:37;;;;;;;2.97;1.10;;;6.90;74.10;;;;;;4996175;28;20488;-69
2021/12/07 09:32:04;;;;;;;3.13;0.90;;;6.90;73.30;;;;;;4996481;28;20871;-69
2021/12/07 09:34:31;;;;;;;3.13;1.10;;;7.10;74.30;;;;;;4996153;28;20453;-70
2021/12/07 09:36:57;;;;;;;5.60;1.20;;;7.10;72.70;;;;;;4996239;28;20551;-69
2021/12/07 09:39:26;;;;;;;3.40;1.07;;;7.10;72.50;;;;;;4996247;28;20449;-68
2021/12/07 09:41:53;;;;;;;3.63;1.40;;;7.10;71.90;;;;;;4996350;28;20452;-69
2021/12/07 09:44:19;;;;;;;3.27;1.40;;;6.80;72.40;;;;;;4996175;28;20449;-69
2021/12/07 09:46:47;;;;;;;3.10;1.00;;;6.50;73.80;;;;;;4995856;28;20461;-69
2021/12/07 09:49:14;;;;;;;3.20;1.50;;;6.50;74.20;;;;;;4995951;28;20449;-70
2021/12/07 09:51:41;;;;;;;2.30;0.90;;;6.60;74.80;;;;;;4996060;28;20457;-70
2021/12/07 09:54:09;;;;;;;3.53;1.20;;;6.50;74.50;;;;;;4995899;28;20461;-71
2021/12/07 09:56:39;;;;;;;2.50;1.00;;;6.60;76.40;;;;;;4995690;28;20469;-70
2021/12/07 09:59:08;;;;;;;4.23;1.10;;;6.80;76.10;;;;;;4995826;28;20457;-71
2021/12/07 10:01:36;;;;;;;3.80;1.30;;;6.70;75.40;;;;;;4995905;28;20449;-70
2021/12/07 10:04:03;;;;;;;2.70;1.20;;;6.80;75.40;;;;;;4995843;28;20445;-71
2021/12/07 10:06:30;;;;;;;2.40;1.13;;;7.00;75.50;;;;;;4995632;28;20523;-70
2021/12/07 10:08:56;;;;;;;3.00;0.97;;;7.10;74.50;;;;;;4995766;28;20441;-70
2021/12/07 10:11:24;;;;;;;3.47;1.70;;;7.30;73.30;;;;;;4995617;28;20472;-70
2021/12/07 10:13:54;;;;;;;3.33;1.20;;;7.20;72.10;;;;;;4995466;28;20531;-70
2021/12/07 10:16:23;;;;;;;3.13;1.17;;;7.30;73.30;;;;;;4996364;28;20592;-68
2021/12/07 10:18:49;;;;;;;2.60;1.10;;;7.50;71.70;;;;;;4995357;28;20539;-69
2021/12/07 10:21:20;;;;;;;4.13;1.30;;;7.70;71.40;;;;;;4995330;28;20441;-69
2021/12/07 10:23:49;;;;;;;3.10;1.40;;;7.90;69.80;;;;;;4995063;28;20931;-69
2021/12/07 10:26:18;;;;;;;3.10;1.40;;;7.80;69.80;;;;;;4995195;28;20476;-69
2021/12/07 10:28:47;;;;;;;2.70;1.13;;;7.80;71.50;;;;;;4995255;28;20500;-69
2021/12/07 10:31:19;;;;;;;4.23;1.57;;;8.10;70.80;;;;;;4995196;28;20445;-70
2021/12/07 10:33:49;;;;;;;4.87;1.90;;;8.40;70.70;;;;;;4994965;28;20937;-69
2021/12/07 10:36:19;;;;;;;2.70;1.10;;;8.50;68.70;;;;;;4995117;28;20477;-69
2021/12/07 10:38:50;;;;;;;3.83;1.87;;;8.60;69.10;;;;;;4995138;28;20469;-70
2021/12/07 10:41:21;;;;;;;3.10;1.20;;;8.40;67.00;;;;;;4995118;28;20524;-69
2021/12/07 10:44:00;;;;;;;3.93;1.23;;;8.40;67.10;;;;;;4995026;28;20448;-70
2021/12/07 10:46:53;;;;;;;4.27;1.10;;;8.30;65.50;;;;;;4994910;28;20515;-71
2021/12/07 10:49:39;;;;;;;3.10;1.20;;;8.70;67.00;;;;;;4991692;28;20456;-69
2021/12/07 10:52:13;;;;;;;3.73;1.20;;;10.70;62.50;;;;;;4994575;28;20432;-69
2021/12/07 10:54:43;;;;;;;3.20;1.10;;;12.50;56.90;;;;;;4994472;28;20909;-71
2021/12/07 10:57:13;;;;;;;3.47;1.10;;;12.80;55.60;;;;;;4994842;28;20893;-70
2021/12/07 10:59:48;;;;;;;2.83;1.10;;;12.20;56.10;;;;;;4994695;28;20867;-70
2021/12/07 11:02:18;;;;;;;2.80;1.50;;;10.80;56.90;;;;;;4994469;28;20811;-69
2021/12/07 11:04:46;;;;;;;3.40;1.30;;;10.00;60.40;;;;;;4994564;28;20508;-70
2021/12/07 11:07:20;;;;;;;4.77;1.10;;;9.60;60.80;;;;;;4994644;28;20453;-68
2021/12/07 11:09:57;;;;;;;2.80;1.03;;;9.10;62.20;;;;;;4994421;28;20502;-70
2021/12/07 11:12:26;;;;;;;2.77;1.20;;;8.80;63.70;;;;;;4994313;28;20501;-69
2021/12/07 11:14:57;;;;;;;2.30;0.90;;;8.60;64.00;;;;;;4994141;28;20471;-70
2021/12/07 11:17:28;;;;;;;2.50;0.97;;;7.90;65.10;;;;;;4994319;28;20484;-69
2021/12/07 11:19:55;;;;;;;2.37;1.00;;;7.90;66.40;;;;;;4994358;28;20429;-69
2021/12/07 11:22:25;;;;;;;2.70;1.10;;;7.90;65.90;;;;;;4994302;28;20528;-69
2021/12/07 11:24:53;;;;;;;2.83;1.17;;;7.90;66.80;;;;;;4994155;28;20473;-70
2021/12/07 11:30:12;;;;;;;6.30;1.60;;;8.10;67.10;;;;;;4977125;28;20519;-70
2021/12/07 11:32:44;;;;;;;3.73;1.10;;;8.20;68.30;;;;;;4993915;28;20449;-69
2021/12/07 11:35:16;;;;;;;3.13;1.20;;;8.10;66.30;;;;;;4994684;28;20514;-70
2021/12/07 11:37:44;;;;;;;2.87;1.23;;;8.30;66.80;;;;;;4993851;28;20496;-70
2021/12/07 11:40:13;;;;;;;4.23;1.80;;;8.30;65.80;;;;;;4994170;28;20536;-69
2021/12/07 11:42:43;;;;;;;2.80;1.30;;;7.90;65.20;;;;;;4994325;28;20548;-69
2021/12/07 11:45:14;;;;;;;3.23;1.20;;;7.40;67.10;;;;;;4993980;28;20476;-70
2021/12/07 11:47:44;;;;;;;3.27;1.40;;;7.20;68.60;;;;;;4993742;28;20901;-69
2021/12/07 11:50:18;;;;;;;2.50;1.10;;;7.20;68.60;;;;;;4993950;28;20445;-69
2021/12/07 11:52:45;;;;;;;2.90;0.90;;;7.30;69.20;;;;;;4993596;28;20848;-69
2021/12/07 11:55:12;;;;;;;4.60;1.13;;;7.60;69.10;;;;;;4993823;28;20561;-69
2021/12/07 11:57:40;;;;;;;3.60;1.37;;;8.00;67.90;;;;;;4993739;28;20481;-69
2021/12/07 12:00:09;;;;;;;2.97;1.10;;;8.50;67.20;;;;;;4993879;28;20445;-69
2021/12/07 12:02:36;;;;;;;2.80;1.00;;;9.70;64.90;;;;;;4993906;28;20500;-70
2021/12/07 12:05:06;;;;;;;2.60;1.10;;;11.70;59.60;;;;;;4993783;28;20869;-70
2021/12/07 12:07:32;;;;;;;2.80;1.10;;;14.20;52.90;;;;;;4993511;28;20936;-70
2021/12/07 12:10:00;;;;;;;2.97;1.30;;;14.70;52.00;;;;;;4993952;28;20507;-70
2021/12/07 12:12:41;;;;;;;2.97;1.67;;;14.80;50.00;;;;;;4993817;28;20452;-70
2021/12/07 12:15:31;;;;;;;2.33;0.90;;;14.30;50.50;;;;;;4993508;28;20539;-71
2021/12/07 12:18:05;;;;;;;2.40;1.00;;;14.70;51.50;;;;;;4995126;28;20503;-71
2021/12/07 12:20:47;;;;;;;3.00;1.23;;;16.00;48.30;;;;;;4993778;28;20491;-71
2021/12/07 12:23:25;;;;;;;3.20;1.30;;;16.20;48.20;;;;;;4997782;28;20433;-70
2021/12/07 12:25:57;;;;;;;3.17;1.00;;;15.70;49.10;;;;;;4997667;28;20469;-70
2021/12/07 12:28:32;;;;;;;3.50;1.17;;;14.40;49.80;;;;;;4997715;28;20492;-69
2021/12/07 12:30:59;;;;;;;3.43;1.20;;;13.00;52.50;;;;;;4997726;28;20495;-70
2021/12/07 12:33:26;;;;;;;2.40;1.00;;;12.20;54.90;;;;;;4997492;28;20453;-70
2021/12/07 12:35:58;;;;;;;2.30;0.90;;;11.20;55.70;;;;;;4997415;28;20469;-70
2021/12/07 12:38:31;;;;;;;3.37;0.80;;;10.70;57.40;;;;;;4997293;28;20523;-70
2021/12/07 12:41:00;;;;;;;2.30;1.00;;;10.50;59.40;;;;;;4997171;28;20921;-71
2021/12/07 12:43:34;;;;;;;3.30;0.93;;;10.60;58.90;;;;;;4997567;28;20523;-70
2021/12/07 12:46:02;;;;;;;2.70;0.80;;;11.20;58.20;;;;;;4997952;28;20464;-70
2021/12/07 12:48:29;;;;;;;2.70;1.30;;;13.20;55.40;;;;;;4997769;28;20476;-70
2021/12/07 12:50:58;;;;;;;2.50;0.90;;;15.20;48.90;;;;;;4997166;28;20459;-71
2021/12/07 12:53:26;;;;;;;2.70;1.13;;;16.90;47.30;;;;;;4997331;28;20508;-71
2021/12/07 12:55:54;;;;;;;2.80;1.10;;;18.10;42.00;;;;;;4997290;28;20527;-71
2021/12/07 12:58:37;;;;;;;3.60;1.27;;;17.90;42.40;;;;;;4997196;28;20481;-70
2021/12/07 13:01:14;;;;;;;3.23;0.90;;;18.00;42.30;;;;;;4996989;28;20439;-71
2021/12/07 13:03:55;;;;;;;2.60;0.80;;;17.40;44.10;;;;;;4996683;28;20857;-70
2021/12/07 13:06:47;;;;;;;3.60;1.20;;;16.00;45.20;;;;;;4996875;28;20500;-69
2021/12/07 13:09:25;;;;;;;2.87;0.90;;;13.90;48.40;;;;;;4996866;28;20433;-69
2021/12/07 13:11:54;;;;;;;3.57;1.30;;;12.00;52.30;;;;;;4996725;28;20433;-69
2021/12/07 13:14:31;;;;;;;2.67;1.20;;;11.00;55.70;;;;;;4996857;28;20452;-69
2021/12/07 13:17:03;;;;;;;3.63;1.40;;;10.20;58.30;;;;;;4996331;28;20522;-69
2021/12/07 13:19:31;;;;;;;3.57;0.83;;;9.70;59.20;;;;;;4996615;28;20477;-69
2021/12/07 13:22:03;;;;;;;5.10;1.30;;;8.90;61.30;;;;;;4996281;28;20457;-69
2021/12/07 13:24:36;;;;;;;2.60;1.07;;;8.00;64.10;;;;;;4996465;28;20433;-69
2021/12/07 13:27:10;;;;;;;3.37;1.00;;;8.20;66.20;;;;;;4996478;28;20457;-70
2021/12/07 13:29:43;;;;;;;2.80;1.20;;;8.70;64.50;;;;;;4996396;28;20943;-69
2021/12/07 13:32:11;;;;;;;2.40;0.90;;;8.60;64.40;;;;;;4995942;28;20430;-69
2021/12/07 13:34:40;;;;;;;2.53;0.83;;;8.60;64.10;;;;;;4995453;28;20956;-71
2021/12/07 13:37:09;;;;;;;2.67;1.00;;;8.60;63.60;;;;;;4996285;28;20445;-69
2021/12/07 13:39:45;;;;;;;2.70;0.87;;;8.00;63.70;;;;;;4996160;28;20481;-69
2021/12/07 13:42:22;;;;;;;2.73;0.80;;;8.00;65.50;;;;;;4996162;28;20516;-69
2021/12/07 13:44:55;;;;;;;2.20;0.90;;;8.50;65.60;;;;;;4996188;28;20433;-70
2021/12/07 13:47:25;;;;;;;2.10;0.80;;;8.70;63.40;;;;;;4996164;28;20437;-69
2021/12/07 13:49:54;;;;;;;3.07;1.03;;;8.70;63.50;;;;;;4996073;28;20500;-69
2021/12/07 13:52:25;;;;;;;2.50;0.90;;;8.60;63.40;;;;;;4996134;28;20453;-69
2021/12/07 13:54:55;;;;;;;2.90;1.00;;;9.80;63.00;;;;;;4996024;28;20519;-71
2021/12/07 13:57:24;;;;;;;2.47;1.03;;;10.60;58.20;;;;;;4996114;28;20450;-70
2021/12/07 14:00:06;;;;;;;2.80;1.00;;;10.60;57.80;;;;;;4995844;28;20484;-70
2021/12/07 14:02:33;;;;;;;2.30;0.80;;;10.60;57.50;;;;;;4995995;28;20429;-70
2021/12/07 14:05:06;;;;;;;2.47;1.00;;;11.30;54.60;;;;;;4995898;28;20547;-71
2021/12/07 14:07:35;;;;;;;2.53;1.07;;;12.20;52.70;;;;;;4996630;28;20461;-70
2021/12/07 14:10:13;;;;;;;3.87;0.90;;;12.80;51.10;;;;;;4995829;28;20860;-71
2021/12/07 14:12:40;;;;;;;3.27;1.13;;;13.50;50.20;;;;;;4995501;28;20913;-70
2021/12/07 14:15:09;;;;;;;2.93;1.00;;;13.50;50.30;;;;;;4995273;28;20887;-70
2021/12/07 14:17:41;;;;;;;4.10;1.00;;;13.60;48.80;;;;;;4995388;28;20429;-70
2021/12/07 14:20:09;;;;;;;2.50;0.90;;;13.40;49.00;;;;;;4995299;28;20995;-69
2021/12/07 14:22:37;;;;;;;2.40;1.00;;;12.70;49.10;;;;;;4995714;28;20504;-70
2021/12/07 14:25:04;;;;;;;3.30;1.20;;;12.10;50.80;;;;;;4995120;28;20988;-71
2021/12/07 14:27:31;;;;;;;2.90;0.90;;;11.70;50.80;;;;;;4995112;28;20941;-69
2021/12/07 14:29:59;;;;;;;2.47;0.80;;;10.70;52.50;;;;;;4995554;28;20499;-69
2021/12/07 14:32:26;;;;;;;2.40;0.80;;;10.10;54.50;;;;;;4995419;28;20453;-70
2021/12/07 14:34:53;;;;;;;2.70;0.90;;;9.50;55.10;;;;;;4995229;28;20559;-69
2021/12/07 14:37:19;;;;;;;2.37;0.90;;;9.20;56.90;;;;;;4995154;28;20445;-70
2021/12/07 14:39:47;;;;;;;2.70;1.00;;;8.90;57.40;;;;;;4995021;28;20481;-70
2021/12/07 14:42:16;;;;;;;7.80;1.10;;;8.90;58.30;;;;;;4995266;28;20484;-69
2021/12/07 14:44:45;;;;;;;2.70;1.17;;;8.80;58.40;;;;;;4994735;28;20504;-69
2021/12/07 14:47:12;;;;;;;2.50;0.90;;;8.70;58.50;;;;;;4994768;28;20854;-69
2021/12/07 14:49:40;;;;;;;2.70;0.93;;;8.60;58.40;;;;;;4994936;28;20552;-70
2021/12/07 14:52:09;;;;;;;2.30;0.97;;;8.30;58.40;;;;;;4994711;28;20532;-70
2021/12/07 14:54:36;;;;;;;2.83;1.20;;;8.00;59.60;;;;;;4994767;28;20536;-71
2021/12/07 14:57:05;;;;;;;3.60;1.03;;;7.90;60.00;;;;;;4994595;28;20507;-70
2021/12/07 14:59:36;;;;;;;3.10;1.00;;;7.90;60.20;;;;;;4994751;28;20515;-70
2021/12/07 15:02:03;;;;;;;3.47;1.10;;;7.70;60.50;;;;;;4994790;28;20434;-69
2021/12/07 15:04:30;;;;;;;3.70;1.10;;;7.50;61.10;;;;;;4994808;28;20460;-69
2021/12/07 15:07:00;;;;;;;2.60;1.20;;;7.20;61.90;;;;;;4994734;28;20512;-70
2021/12/07 15:09:27;;;;;;;2.97;1.63;;;7.00;63.40;;;;;;4994547;28;20464;-69
2021/12/07 15:11:55;;;;;;;3.00;1.37;;;7.20;63.30;;;;;;4994523;28;20552;-71
2021/12/07 15:14:27;;;;;;;3.17;1.37;;;7.20;63.40;;;;;;4994615;28;20971;-70
2021/12/07 15:16:56;;;;;;;2.50;0.90;;;7.10;63.40;;;;;;4994395;28;20567;-70
2021/12/07 15:19:23;;;;;;;3.83;1.10;;;7.20;63.80;;;;;;4994421;28;20487;-70
2021/12/07 15:21:52;;;;;;;2.83;1.10;;;7.20;64.10;;;;;;4994491;28;20505;-70
2021/12/07 15:24:20;;;;;;;5.03;1.47;;;7.20;63.60;;;;;;4994702;28;20457;-70
2021/12/07 15:26:49;;;;;;;2.67;1.10;;;7.20;64.30;;;;;;4994522;28;20560;-70
2021/12/07 15:29:18;;;;;;;2.70;1.10;;;7.20;64.90;;;;;;4994560;28;20449;-69
2021/12/07 15:31:49;;;;;;;3.53;1.10;;;7.20;65.20;;;;;;4994493;28;20461;-69
2021/12/07 15:34:18;;;;;;;2.87;0.87;;;7.10;65.60;;;;;;4993942;28;20531;-69
2021/12/07 15:36:48;;;;;;;3.27;1.40;;;7.10;66.10;;;;;;4994256;28;20472;-69
2021/12/07 15:39:18;;;;;;;3.00;1.20;;;7.00;65.90;;;;;;4993959;28;21019;-69
2021/12/07 15:41:47;;;;;;;4.10;1.73;;;6.90;66.30;;;;;;4994147;28;20480;-69
2021/12/07 15:44:15;;;;;;;5.10;1.67;;;6.90;66.80;;;;;;4994223;28;20507;-69
2021/12/07 15:46:48;;;;;;;5.40;1.70;;;6.80;67.60;;;;;;4994044;28;20477;-69
2021/12/07 15:49:23;;;;;;;2.97;1.37;;;6.70;67.90;;;;;;4994143;28;20484;-68
2021/12/07 15:51:51;;;;;;;3.00;1.30;;;6.70;68.20;;;;;;4994203;28;20812;-69
2021/12/07 15:54:18;;;;;;;2.60;1.17;;;6.60;68.40;;;;;;4993814;28;20453;-69
2021/12/07 15:56:45;;;;;;;3.33;1.30;;;6.50;67.80;;;;;;4993064;28;20472;-69
2021/12/07 15:59:16;;;;;;;3.10;1.40;;;6.50;68.10;;;;;;4994055;28;20485;-69
2021/12/07 16:01:43;;;;;;;3.27;1.63;;;6.40;68.60;;;;;;4994104;28;20453;-69
2021/12/07 16:04:22;;;;;;;3.90;2.03;;;6.30;68.90;;;;;;4993783;28;20871;-68
2021/12/07 16:06:49;;;;;;;4.30;2.10;;;6.30;69.00;;;;;;4993772;28;20634;-70
2021/12/07 16:09:18;;;;;;;4.10;2.03;;;6.30;69.10;;;;;;4993754;28;20445;-68
2021/12/07 16:11:45;;;;;;;4.77;1.80;;;6.20;68.70;;;;;;4993757;28;20449;-69
2021/12/07 16:14:22;;;;;;;3.27;2.23;;;6.10;68.90;;;;;;4993702;28;20449;-69
2021/12/07 16:16:51;;;;;;;3.03;1.70;;;6.00;69.10;;;;;;5018566;23;20496;-71
2021/12/07 16:19:19;;;;;;;4.20;2.10;;;5.90;69.10;;;;;;4994045;28;20576;-71
2021/12/07 16:21:46;;;;;;;4.87;2.07;;;5.70;69.10;;;;;;4994273;28;20445;-70
2021/12/07 16:24:13;;;;;;;3.93;1.77;;;5.70;69.10;;;;;;4994155;28;20532;-71
2021/12/07 16:26:41;;;;;;;5.20;2.00;;;5.70;69.00;;;;;;4994110;28;20469;-71
2021/12/07 16:29:08;;;;;;;4.80;2.23;;;5.70;69.20;;;;;;4994297;28;20449;-71
2021/12/07 16:31:35;;;;;;;4.13;1.90;;;5.70;69.50;;;;;;4994481;28;20467;-72
2021/12/07 16:34:02;;;;;;;4.50;2.50;;;5.70;69.20;;;;;;4994125;28;20528;-72
2021/12/07 16:36:31;;;;;;;5.10;2.07;;;5.70;68.80;;;;;;4994974;28;20515;-71
2021/12/07 16:39:00;;;;;;;4.60;2.17;;;5.50;69.20;;;;;;4994944;28;20461;-71
2021/12/07 16:41:28;;;;;;;4.13;2.43;;;5.50;68.90;;;;;;4994223;28;20454;-72
2021/12/07 16:43:56;;;;;;;4.90;2.33;;;5.60;69.40;;;;;;4994399;28;20445;-72
2021/12/07 16:46:22;;;;;;;4.60;2.73;;;5.70;69.50;;;;;;4994745;28;20477;-72
2021/12/07 16:48:50;;;;;;;4.40;2.00;;;5.70;69.00;;;;;;4994384;28;20453;-71
2021/12/07 16:51:17;;;;;;;3.97;2.53;;;5.70;69.00;;;;;;4993968;28;20956;-71
2021/12/07 16:53:46;;;;;;;3.30;1.97;;;5.80;69.00;;;;;;4994233;28;20527;-72
2021/12/07 16:56:13;;;;;;;3.37;1.80;;;5.80;69.00;;;;;;4993948;28;20477;-72
2021/12/07 16:58:40;;;;;;;3.83;1.87;;;5.60;68.70;;;;;;4994218;28;20453;-72
2021/12/07 17:01:09;;;;;;;2.87;1.60;;;5.70;68.80;;;;;;4994184;28;20485;-72
2021/12/07 17:03:37;;;;;;;5.77;1.93;;;5.70;68.90;;;;;;4994970;28;20528;-71
2021/12/07 17:06:05;;;;;;;3.17;1.60;;;5.70;68.80;;;;;;4995886;28;20465;-71
2021/12/07 17:08:32;;;;;;;3.50;1.73;;;5.80;68.70;;;;;;4996395;28;20503;-72
2021/12/07 17:11:00;;;;;;;4.57;2.20;;;5.50;68.80;;;;;;4997321;28;20476;-72
2021/12/07 17:13:27;;;;;;;3.53;1.80;;;5.30;69.50;;;;;;4997221;28;20507;-71
2021/12/07 17:15:54;;;;;;;4.60;2.00;;;5.00;70.50;;;;;;4996934;28;20481;-72
2021/12/07 17:18:23;;;;;;;3.67;1.67;;;5.20;70.80;;;;;;4997372;28;20457;-72
2021/12/07 17:20:53;;;;;;;3.03;1.50;;;5.30;70.50;;;;;;4997007;28;20481;-72
2021/12/07 17:23:21;;;;;;;3.67;1.63;;;5.30;70.20;;;;;;4996951;28;20460;-72
2021/12/07 17:25:47;;;;;;;2.83;1.40;;;5.10;70.70;;;;;;4997031;28;20527;-72
2021/12/07 17:28:16;;;;;;;3.60;1.70;;;5.00;71.00;;;;;;4997018;28;20499;-72
2021/12/07 17:30:43;;;;;;;3.40;1.50;;;4.90;71.10;;;;;;4997040;28;20453;-72
2021/12/07 17:33:10;;;;;;;3.50;1.80;;;4.80;71.70;;;;;;4997318;28;20507;-72
2021/12/07 17:35:37;;;;;;;4.57;1.60;;;4.60;72.00;;;;;;4996709;28;20494;-71